Latest Weather Observations for Ernabella/Pukatja

IDS60801

Issued at 2:51 pm CST Thursday 28 May 2020 (issued every 10 minutes, with the page automatically refreshed every 10 minutes)

About weather observations | Map of weather stations | Latest weather observations for SA | Other Formats
Station Details ID: 016097 Name: PUKATJA Lat: -26.26 Lon: 132.18 Height: 703.2 m
Data from the previous 72 hours. | See also: Recent months at Ernabella/Pukatja
Date/Time
CST
Temp
°C
App
Temp
°C
Dew
Point
°C
Rel
Hum
%
Delta-T
°C
Wind Press
QNH
hPa
Press
MSL
hPa
Rain since
9am
mm
Dir  Spd
km/h
Gust
km/h
Spd
kts
Gust
kts
28/02:30pm 20.7 17.4 2.5 30 8.8 ENE 9 17 5 9 1022.3 1020.7 0.0
28/02:00pm 20.3 17.1 3.1 32 8.4 E 9 15 5 8 1022.5 1020.9 0.0
28/01:30pm 19.7 16.1 3.0 33 8.1 NNE 11 17 6 9 1023.1 1021.5 0.0
28/01:00pm 19.8 16.7 3.5 34 8.0 NW 9 13 5 7 1023.6 1022.0 0.0
28/12:30pm 19.7 16.7 4.2 36 7.7 E 9 20 5 11 1024.0 1022.5 0.0
28/12:00pm 18.7 14.9 4.1 38 7.2 NE 13 20 7 11 1024.6 1023.0 0.0
28/11:30am 18.1 14.3 3.9 39 6.9 NE 13 17 7 9 1024.9 1023.3 0.0
28/11:00am 16.9 13.2 4.3 43 6.2 ENE 13 20 7 11 1025.3 1023.8 0.0
28/10:30am 16.4 12.4 4.8 46 5.7 ENE 15 24 8 13 1025.6 1024.1 0.0
28/10:00am 15.3 10.9 4.7 49 5.2 E 17 20 9 11 1025.6 1024.1 0.0
28/09:30am 14.7 10.2 4.4 50 4.9 ENE 17 22 9 12 1025.7 1024.2 0.0
28/09:00am 14.0 11.9 3.8 50 4.8 ENE 4 9 2 5 1025.5 1024.0 0.0
28/08:30am 10.9 9.4 3.2 59 3.5 CALM 0 0 0 0 1025.3 1023.8 0.0
28/08:00am 8.1 5.7 2.4 67 2.5 SW 4 7 2 4 1025.0 1023.4 0.0
28/07:30am 6.2 4.5 1.9 74 1.8 CALM 0 0 0 0 1024.7 1023.1 0.0
28/07:00am 7.3 5.3 2.2 70 2.2 SW 2 7 1 4 1024.1 1022.6 0.0
28/06:30am 7.1 4.4 2.4 72 2.0 SSW 6 9 3 5 1023.7 1022.1 0.0
28/06:00am 5.8 3.3 1.5 74 1.8 SE 4 9 2 5 1023.4 1021.8 0.0
28/05:30am 6.5 3.5 1.8 72 2.0 ESE 7 9 4 5 1023.1 1021.5 0.0
28/05:00am 7.7 6.2 3.0 72 2.1 CALM 0 0 0 0 1022.7 1021.2 0.0
28/04:30am 6.8 4.3 1.7 70 2.2 SSE 4 9 2 5 1022.7 1021.2 0.0
28/04:00am 8.3 6.0 3.0 69 2.3 NNE 4 7 2 4 1023.0 1021.4 0.0
28/03:30am 12.1 8.7 3.9 57 3.8 SE 11 13 6 7 1022.7 1021.2 0.0
28/03:00am 13.0 9.3 4.2 55 4.1 SE 13 19 7 10 1022.6 1021.0 0.0
28/02:30am 12.0 8.4 5.2 63 3.3 ESE 13 15 7 8 1022.5 1020.9 0.0
28/02:00am 9.8 6.1 2.2 59 3.4 ESE 11 15 6 8 1022.6 1021.0 0.0
28/01:30am 9.7 6.8 2.8 62 3.1 ESE 7 11 4 6 1022.7 1021.2 0.0
28/01:00am 11.4 9.5 2.9 56 3.9 ENE 2 6 1 3 1022.5 1020.9 0.0
28/12:30am 12.0 10.6 3.3 55 4.0 CALM 0 0 0 0 1022.5 1020.9 0.0
28/12:00am 12.3 9.7 3.3 54 4.1 SW 6 7 3 4 1022.6 1021.0 0.0
 
Date/Time
CST
Temp
°C
App
Temp
°C
Dew
Point
°C
Rel
Hum
%
Delta-T
°C
Wind Press
QNH
hPa
Press
MSL
hPa
Rain since
9am
mm
Dir  Spd
km/h
Gust
km/h
Spd
kts
Gust
kts
27/11:30pm 11.9 10.4 2.9 54 4.1 CALM 0 0 0 0 1022.5 1020.9 0.0
27/11:00pm 13.2 11.8 3.8 53 4.4 CALM 0 0 0 0 1022.6 1021.0 0.0
27/10:30pm 14.4 11.9 3.5 48 5.1 ENE 6 7 3 4 1022.6 1021.0 0.0
27/10:00pm 16.1 13.1 3.9 44 5.9 ESE 9 11 5 6 1022.7 1021.2 0.0
27/09:30pm 15.2 12.5 3.7 46 5.5 ESE 7 9 4 5 1022.6 1021.0 0.0
27/09:00pm 15.7 13.0 3.5 44 5.8 E 7 9 4 5 1022.4 1020.8 0.0
27/08:30pm 16.6 13.6 4.0 43 6.1 SE 9 11 5 6 1022.4 1020.8 0.0
27/08:00pm 16.7 14.2 3.7 42 6.3 ESE 6 7 3 4 1022.0 1020.4 0.0
27/07:30pm 16.6 14.8 3.3 41 6.3 ESE 2 7 1 4 1021.6 1020.0 0.0
27/07:00pm 16.8 14.1 3.5 41 6.4 E 7 7 4 4 1021.2 1019.6 0.0
27/06:30pm 17.1 15.0 3.8 41 6.4 E 4 7 2 4 1020.9 1019.3 0.0
27/06:00pm 17.5 15.7 3.4 39 6.8 ESE 2 7 1 4 1020.5 1018.9 0.0
27/05:30pm 17.8 16.1 4.0 40 6.7 ENE 2 6 1 3 1020.3 1018.7 0.0
27/05:00pm 18.0 15.1 4.6 41 6.6 ENE 9 11 5 6 1020.1 1018.4 0.0
27/04:30pm 18.1 15.7 5.3 43 6.4 NE 7 11 4 6 1019.7 1018.1 0.0
27/04:00pm 18.0 15.3 5.6 44 6.3 ENE 9 11 5 6 1019.7 1018.1 0.0
27/03:30pm 18.3 16.2 5.8 44 6.3 NE 6 9 3 5 1019.8 1018.2 0.0
27/03:00pm 18.0 15.7 5.6 44 6.2 NNE 7 11 4 6 1020.1 1018.4 0.0
27/02:30pm 18.1 15.3 5.3 43 6.4 NNE 9 13 5 7 1020.2 1018.5 0.0
27/02:00pm 18.1 15.4 5.7 44 6.3 E 9 15 5 8 1020.5 1018.9 0.0
27/01:30pm 18.2 15.5 5.4 43 6.4 N 9 17 5 9 1020.7 1019.1 0.0
27/01:00pm 18.0 15.0 6.2 46 6.0 E 11 17 6 9 1021.3 1019.7 0.0
27/12:30pm 16.5 13.8 5.8 49 5.4 E 9 15 5 8 1021.8 1020.2 0.0
27/12:00pm 16.7 14.3 6.8 52 5.1 ESE 9 13 5 7 1022.3 1020.7 0.0
27/11:30am 16.2 14.2 6.9 54 4.7 SE 7 13 4 7 1022.8 1021.3 0.0
27/11:00am 15.7 13.8 7.5 58 4.2 SSW 7 13 4 7 1023.2 1021.6 0.0
27/10:30am 14.9 11.9 7.7 62 3.7 S 13 17 7 9 1023.5 1021.9 0.0
27/10:00am 14.6 11.3 7.9 64 3.5 S 15 20 8 11 1023.6 1022.0 0.0
27/09:30am 13.9 11.3 7.7 66 3.2 S 11 15 6 8 1023.6 1022.0 0.0
27/09:00am 12.8 10.1 7.3 69 2.8 SSW 11 13 6 7 1023.5 1021.9 0.0
27/08:30am 12.3 9.7 7.6 73 2.4 SW 11 15 6 8 1023.4 1021.8 0.0
27/08:00am 12.0 9.8 7.9 76 2.1 WSW 9 13 5 7 1023.1 1021.5 0.0
27/07:30am 11.6 10.0 7.9 78 1.9 WSW 6 9 3 5 1022.6 1021.0 0.0
27/07:00am 11.6 9.8 7.9 78 1.9 W 7 9 4 5 1022.2 1020.6 0.0
27/06:30am 11.9 9.4 8.0 77 2.0 SSW 11 15 6 8 1021.8 1020.2 0.0
27/06:00am 12.5 10.4 8.4 76 2.1 SW 9 17 5 9 1021.7 1020.1 0.0
27/05:30am 12.5 10.8 8.4 76 2.1 SSE 7 15 4 8 1021.3 1019.7 0.0
27/05:00am 12.3 10.5 8.0 75 2.2 SSE 7 13 4 7 1021.2 1019.6 0.0
27/04:30am 12.5 10.3 8.0 74 2.3 WSW 9 15 5 8 1021.2 1019.6 0.0
27/04:00am 12.4 10.2 7.7 73 2.4 SSW 9 11 5 6 1021.1 1019.5 0.0
27/03:30am 13.0 10.8 7.7 70 2.7 SW 9 13 5 7 1021.0 1019.4 0.0
27/03:00am 13.0 10.4 7.7 70 2.7 SW 11 13 6 7 1021.0 1019.4 0.0
27/02:30am 13.5 10.1 7.7 68 3.0 WSW 15 22 8 12 1020.9 1019.3 0.0
27/02:00am 13.8 10.8 7.6 66 3.2 W 13 15 7 8 1020.7 1019.1 0.0
27/01:30am 13.9 11.7 7.7 66 3.2 WSW 9 13 5 7 1020.6 1019.0 0.0
27/01:00am 13.9 11.8 8.1 68 3.0 SW 9 9 5 5 1020.4 1018.8 0.0
27/12:30am 14.4 12.8 8.1 66 3.3 W 6 9 3 5 1020.5 1018.9 0.0
27/12:00am 14.7 13.1 8.2 65 3.4 WNW 6 7 3 4 1020.6 1019.0 0.0
 
Date/Time
CST
Temp
°C
App
Temp
°C
Dew
Point
°C
Rel
Hum
%
Delta-T
°C
Wind Press
QNH
hPa
Press
MSL
hPa
Rain since
9am
mm
Dir  Spd
km/h
Gust
km/h
Spd
kts
Gust
kts
26/11:30pm 15.0 12.9 8.3 64 3.5 NW 9 13 5 7 1020.6 1019.0 0.0
26/11:00pm 15.5 12.6 8.3 62 3.8 WNW 13 17 7 9 1020.5 1018.9 0.0
26/10:30pm 15.8 12.9 8.1 60 4.0 WNW 13 19 7 10 1020.5 1018.9 0.0
26/10:00pm 15.5 13.9 7.8 60 4.0 W 6 7 3 4 1020.5 1018.9 0.0
26/09:30pm 15.9 13.7 7.9 59 4.2 WNW 9 15 5 8 1020.5 1018.9 0.0
26/09:00pm 16.1 13.1 7.6 57 4.4 WNW 13 17 7 9 1020.4 1018.8 0.0
26/08:30pm 16.3 13.6 7.5 56 4.6 WNW 11 15 6 8 1020.2 1018.5 0.0
26/08:00pm 16.5 13.4 7.4 55 4.7 WNW 13 17 7 9 1019.7 1018.1 0.0
26/07:30pm 16.5 13.8 7.2 54 4.8 WNW 11 15 6 8 1019.5 1017.9 0.0
26/07:00pm 16.7 12.8 7.1 53 5.0 NW 17 22 9 12 1019.2 1017.6 0.0
26/06:30pm 16.9 13.3 6.7 51 5.2 WNW 15 20 8 11 1018.7 1017.0 0.0
26/06:00pm 17.0 12.6 6.5 50 5.4 WNW 19 24 10 13 1018.3 1016.7 0.0
26/05:30pm 17.1 13.1 6.6 50 5.4 WNW 17 26 9 14 1018.0 1016.4 0.0
26/05:00pm 17.3 13.3 6.5 49 5.5 NW 17 22 9 12 1017.7 1016.0 0.0
26/04:30pm 17.8 13.2 6.3 47 5.9 WNW 20 28 11 15 1017.5 1015.8 0.0
26/04:00pm 17.4 13.0 6.6 49 5.5 WNW 19 26 10 14 1017.5 1015.8 0.0
26/03:30pm 17.3 12.2 6.2 48 5.6 NW 22 30 12 16 1017.7 1016.0 0.0
26/03:00pm 17.2 12.5 6.1 48 5.6 WNW 20 33 11 18 1017.6 1015.9 0.0
26/02:30pm 17.1 12.1 6.3 49 5.5 NW 22 35 12 19 1017.7 1016.0 0.0
26/02:00pm 16.4 11.0 6.2 51 5.2 WNW 24 32 13 17 1017.9 1016.3 0.0
26/01:30pm 15.7 11.1 6.4 54 4.7 WNW 20 32 11 17 1018.5 1016.8 0.0
26/01:00pm 14.7 10.7 6.5 58 4.1 NW 17 24 9 13 1019.1 1017.5 0.0
26/12:30pm 14.1 9.4 6.2 59 3.9 WNW 20 32 11 17 1019.7 1018.1 0.0
26/12:00pm 14.7 9.5 5.5 54 4.5 NW 22 32 12 17 1020.0 1018.3 0.0
26/11:30am 14.1 9.3 5.5 56 4.2 NW 20 32 11 17 1020.3 1018.7 0.0
26/11:00am 14.2 10.4 5.6 56 4.2 WNW 15 24 8 13 1020.7 1019.1 0.0
26/10:30am 13.5 10.8 5.4 58 3.9 NW 9 19 5 10 1021.1 1019.5 0.0
26/10:00am 13.0 9.5 5.4 60 3.7 WNW 13 20 7 11 1021.2 1019.6 0.0
26/09:30am 12.8 6.8 5.2 60 3.7 WNW 26 35 14 19 1020.6 1019.0 0.0
26/09:00am 12.8 8.0 5.5 61 3.5 WNW 20 30 11 16 1020.1 1018.4 0.0
26/08:30am 12.6 6.6 5.3 61 3.5 NW 26 35 14 19 1019.8 1018.2 0.0
26/08:00am 12.8 6.0 5.0 59 3.8 NW 30 43 16 23 1019.3 1017.7 0.0
26/07:30am 12.7 7.3 4.4 57 3.9 NNW 22 39 12 21 1019.0 1017.3 0.0
26/07:00am 12.1 8.1 4.8 61 3.5 NNW 15 24 8 13 1019.0 1017.3 0.0
26/06:30am 12.4 8.7 4.6 59 3.7 NW 13 24 7 13 1018.7 1017.0 0.0
26/06:00am 12.8 8.4 4.5 57 3.9 N 17 35 9 19 1018.0 1016.4 0.0
26/05:30am 12.4 8.8 5.1 61 3.5 N 13 20 7 11 1017.9 1016.3 0.0
26/05:00am 12.5 6.3 4.5 58 3.8 N 26 37 14 20 1017.2 1015.5 0.0
26/04:30am 12.3 7.5 4.8 60 3.6 N 19 28 10 15 1017.8 1016.2 0.0
26/04:00am 13.0 8.4 3.9 54 4.3 N 17 26 9 14 1017.9 1016.3 0.0
26/03:30am 12.3 9.0 4.5 59 3.7 N 11 17 6 9 1018.3 1016.7 0.0
26/03:00am 13.1 8.1 3.5 52 4.5 N 19 28 10 15 1018.8 1017.1 0.0
26/02:30am 13.3 8.6 3.1 50 4.7 N 17 20 9 11 1019.5 1017.9 0.0
26/02:00am 13.4 9.0 2.9 49 4.8 NNE 15 24 8 13 1019.7 1018.1 0.0
26/01:30am 13.5 8.7 2.7 48 5.0 NNE 17 24 9 13 1019.6 1018.0 0.0
26/01:00am 13.7 9.7 2.6 47 5.1 N 13 19 7 10 1020.2 1018.5 0.0
26/12:30am 14.0 9.9 2.3 45 5.3 N 13 17 7 9 1020.6 1019.0 0.0
26/12:00am 13.7 10.3 2.0 45 5.3 N 9 13 5 7 1020.6 1019.0 0.0
 
Date/Time
CST
Temp
°C
App
Temp
°C
Dew
Point
°C
Rel
Hum
%
Delta-T
°C
Wind Press
QNH
hPa
Press
MSL
hPa
Rain since
9am
mm
Dir  Spd
km/h
Gust
km/h
Spd
kts
Gust
kts
25/11:30pm 13.3 9.1 1.6 45 5.2 ENE 13 17 7 9 1020.4 1018.8 0.0
25/11:00pm 13.6 9.4 1.6 44 5.4 E 13 17 7 9 1020.2 1018.5 0.0
25/10:30pm 13.7 10.2 1.4 43 5.5 ESE 9 13 5 7 1020.6 1019.0 0.0
25/10:00pm 13.5 10.6 1.2 43 5.5 E 6 7 3 4 1020.9 1019.3 0.0
25/09:30pm 14.0 9.7 1.3 42 5.7 ENE 13 15 7 8 1020.6 1019.0 0.0
25/09:00pm 14.4 9.7 1.0 40 6.0 NE 15 19 8 10 1020.5 1018.9 0.0
25/08:30pm 14.7 10.3 0.5 38 6.3 NE 13 17 7 9 1020.2 1018.5 0.0
25/08:00pm 15.1 11.1 0.5 37 6.5 NE 11 15 6 8 1020.2 1018.5 0.0
25/07:30pm 15.2 11.5 0.2 36 6.6 NNE 9 13 5 7 1020.5 1018.9 0.0
25/07:00pm 15.5 11.8 0.1 35 6.8 NNE 9 13 5 7 1020.2 1018.5 0.0
25/06:30pm 16.0 11.5 -0.2 33 7.1 NNE 13 20 7 11 1019.4 1017.8 0.0
25/06:00pm 16.2 11.7 -0.5 32 7.3 NNE 13 20 7 11 1018.8 1017.1 0.0
25/05:30pm 16.7 11.9 -0.1 32 7.5 NNE 15 22 8 12 1018.2 1016.6 0.0
25/05:00pm 17.0 12.1 -0.2 31 7.7 NNE 15 19 8 10 1018.6 1016.9 0.0
25/04:30pm 17.0 11.4 -0.2 31 7.7 NNE 19 28 10 15 1018.5 1016.8 0.0
25/04:00pm 17.6 11.7 -0.6 29 8.1 NNE 20 26 11 14 1018.6 1016.9 0.0
25/03:30pm 17.9 13.0 -0.4 29 8.2 N 15 24 8 13 1018.6 1016.9 0.0
25/03:00pm 16.7 10.9 -0.1 32 7.5 NNE 20 32 11 17 1018.6 1016.9 0.0

Other formats

Comma delimited format used in spreadsheet applications
http://www.bom.gov.au/fwo/IDS60801/IDS60801.94474.axf

JavaScript Object Notation format (JSON) in row-major order
http://www.bom.gov.au/fwo/IDS60801/IDS60801.94474.json

Data quality

Most of these data are generated automatically and are frequently updated. Quality checks on data are not normally performed. It is possible for incorrect values to appear. Refer to information at About Latest Weather Observations and please check the disclaimer before using these data.